sensor_id;sensor_type;location;lat;lon;timestamp;pressure;altitude;pressure_sealevel;temperature;humidity
13821;BME280;6981;42.678;23.294;2022-09-09T00:10:34;94979.56;;;16.96;100.00
13821;BME280;6981;42.678;23.294;2022-09-09T00:13:31;95091.06;;;17.46;100.00
13821;BME280;6981;42.678;23.294;2022-09-09T00:16:24;94989.44;;;16.89;100.00
13821;BME280;6981;42.678;23.294;2022-09-09T00:19:02;94920.81;;;16.37;100.00
13821;BME280;6981;42.678;23.294;2022-09-09T00:22:12;94908.56;;;16.04;100.00
13821;BME280;6981;42.678;23.294;2022-09-09T00:25:02;95114.09;;;17.52;100.00
13821;BME280;6981;42.678;23.294;2022-09-09T00:37:21;95088.50;;;17.58;100.00
13821;BME280;6981;42.678;23.294;2022-09-09T00:40:23;94996.25;;;17.03;100.00
13821;BME280;6981;42.678;23.294;2022-09-09T00:43:27;95089.50;;;17.63;100.00
13821;BME280;6981;42.678;23.294;2022-09-09T00:49:39;94872.03;;;16.19;100.00
13821;BME280;6981;42.678;23.294;2022-09-09T00:52:59;94863.13;;;16.07;100.00
13821;BME280;6981;42.678;23.294;2022-09-09T00:55:48;95088.50;;;17.58;100.00
13821;BME280;6981;42.678;23.294;2022-09-09T00:58:31;94904.22;;;16.16;100.00
13821;BME280;6981;42.678;23.294;2022-09-09T01:01:15;95009.50;;;16.79;100.00
13821;BME280;6981;42.678;23.294;2022-09-09T01:03:56;94867.91;;;15.92;100.00
13821;BME280;6981;42.678;23.294;2022-09-09T01:06:39;95103.38;;;17.40;100.00
13821;BME280;6981;42.678;23.294;2022-09-09T01:09:36;94987.50;;;16.72;100.00
13821;BME280;6981;42.678;23.294;2022-09-09T01:12:16;94951.31;;;16.52;100.00
13821;BME280;6981;42.678;23.294;2022-09-09T01:15:07;94933.09;;;16.31;100.00
13821;BME280;6981;42.678;23.294;2022-09-09T01:18:05;94961.44;;;16.31;100.00
13821;BME280;6981;42.678;23.294;2022-09-09T01:20:49;94863.78;;;15.65;100.00
13821;BME280;6981;42.678;23.294;2022-09-09T01:23:46;94865.81;;;15.63;100.00
13821;BME280;6981;42.678;23.294;2022-09-09T01:26:52;94882.47;;;15.70;100.00
13821;BME280;6981;42.678;23.294;2022-09-09T01:29:37;94940.31;;;16.17;100.00
13821;BME280;6981;42.678;23.294;2022-09-09T01:32:42;95037.41;;;16.50;100.00
13821;BME280;6981;42.678;23.294;2022-09-09T01:59:03;95122.13;;;16.83;100.00
13821;BME280;6981;42.678;23.294;2022-09-09T02:02:03;95066.97;;;16.47;100.00
13821;BME280;6981;42.678;23.294;2022-09-09T02:04:49;94985.88;;;15.88;100.00
13821;BME280;6981;42.678;23.294;2022-09-09T02:07:35;94899.69;;;15.41;100.00
13821;BME280;6981;42.678;23.294;2022-09-09T02:10:15;95012.34;;;15.95;100.00
13821;BME280;6981;42.678;23.294;2022-09-09T02:13:02;95042.81;;;16.23;100.00
13821;BME280;6981;42.678;23.294;2022-09-09T02:15:51;94890.34;;;15.25;100.00
13821;BME280;6981;42.678;23.294;2022-09-09T02:18:27;94878.56;;;15.21;100.00
13821;BME280;6981;42.678;23.294;2022-09-09T02:20:58;94968.34;;;15.94;100.00
13821;BME280;6981;42.678;23.294;2022-09-09T02:23:48;95103.59;;;16.76;100.00
13821;BME280;6981;42.678;23.294;2022-09-09T02:26:33;95103.00;;;16.68;100.00
13821;BME280;6981;42.678;23.294;2022-09-09T02:29:19;94883.88;;;15.08;100.00
13821;BME280;6981;42.678;23.294;2022-09-09T02:32:04;95076.19;;;16.44;100.00
13821;BME280;6981;42.678;23.294;2022-09-09T02:34:42;95034.72;;;16.05;100.00
13821;BME280;6981;42.678;23.294;2022-09-09T02:37:28;94895.63;;;15.25;100.00
13821;BME280;6981;42.678;23.294;2022-09-09T02:40:01;94985.75;;;15.63;100.00
13821;BME280;6981;42.678;23.294;2022-09-09T02:42:46;95117.13;;;16.48;100.00
13821;BME280;6981;42.678;23.294;2022-09-09T02:45:35;95047.19;;;15.98;100.00
13821;BME280;6981;42.678;23.294;2022-09-09T02:48:33;95059.66;;;15.98;100.00
13821;BME280;6981;42.678;23.294;2022-09-09T02:51:23;94928.47;;;15.11;100.00
13821;BME280;6981;42.678;23.294;2022-09-09T02:54:19;94993.72;;;15.43;100.00
13821;BME280;6981;42.678;23.294;2022-09-09T02:57:08;94981.72;;;15.54;100.00
13821;BME280;6981;42.678;23.294;2022-09-09T02:59:40;95006.75;;;15.52;100.00
13821;BME280;6981;42.678;23.294;2022-09-09T03:02:22;94987.84;;;15.55;100.00
13821;BME280;6981;42.678;23.294;2022-09-09T03:05:32;94935.78;;;15.09;100.00
13821;BME280;6981;42.678;23.294;2022-09-09T03:08:10;94993.97;;;15.55;100.00
13821;BME280;6981;42.678;23.294;2022-09-09T03:10:58;94905.28;;;15.00;100.00
13821;BME280;6981;42.678;23.294;2022-09-09T03:13:57;94910.16;;;14.83;100.00
13821;BME280;6981;42.678;23.294;2022-09-09T03:16:41;95063.34;;;15.77;100.00
13821;BME280;6981;42.678;23.294;2022-09-09T03:19:24;95040.13;;;15.72;100.00
13821;BME280;6981;42.678;23.294;2022-09-09T03:21:56;94932.50;;;15.07;100.00
13821;BME280;6981;42.678;23.294;2022-09-09T03:24:35;94908.34;;;14.90;100.00
13821;BME280;6981;42.678;23.294;2022-09-09T03:27:16;94920.16;;;14.88;100.00
13821;BME280;6981;42.678;23.294;2022-09-09T03:29:46;94925.00;;;14.97;100.00
13821;BME280;6981;42.678;23.294;2022-09-09T03:32:28;95114.59;;;16.22;100.00
13821;BME280;6981;42.678;23.294;2022-09-09T03:35:01;95014.88;;;15.70;100.00
13821;BME280;6981;42.678;23.294;2022-09-09T03:37:47;95157.75;;;16.36;100.00
13821;BME280;6981;42.678;23.294;2022-09-09T03:40:32;94914.44;;;14.97;100.00
13821;BME280;6981;42.678;23.294;2022-09-09T03:43:17;95115.16;;;16.31;100.00
13821;BME280;6981;42.678;23.294;2022-09-09T03:45:54;94904.47;;;15.06;100.00
13821;BME280;6981;42.678;23.294;2022-09-09T03:48:25;95072.28;;;15.96;100.00
13821;BME280;6981;42.678;23.294;2022-09-09T03:51:06;95051.91;;;15.90;100.00
13821;BME280;6981;42.678;23.294;2022-09-09T03:56:55;94920.53;;;14.85;100.00
13821;BME280;6981;42.678;23.294;2022-09-09T03:59:39;95017.34;;;15.38;100.00
13821;BME280;6981;42.678;23.294;2022-09-09T04:02:21;94921.38;;;14.85;100.00
13821;BME280;6981;42.678;23.294;2022-09-09T04:05:03;94896.94;;;14.77;100.00
13821;BME280;6981;42.678;23.294;2022-09-09T04:07:46;94880.31;;;14.63;100.00
13821;BME280;6981;42.678;23.294;2022-09-09T04:10:29;95056.03;;;15.66;100.00
13821;BME280;6981;42.678;23.294;2022-09-09T04:20:01;95078.97;;;15.98;100.00
13821;BME280;6981;42.678;23.294;2022-09-09T04:23:05;94996.13;;;15.78;100.00
13821;BME280;6981;42.678;23.294;2022-09-09T04:25:48;94927.19;;;15.33;100.00
13821;BME280;6981;42.678;23.294;2022-09-09T04:28:35;95133.31;;;16.85;100.00
13821;BME280;6981;42.678;23.294;2022-09-09T04:31:22;94941.16;;;15.67;100.00
13821;BME280;6981;42.678;23.294;2022-09-09T04:34:38;95130.94;;;17.08;100.00
13821;BME280;6981;42.678;23.294;2022-09-09T04:40:34;95139.59;;;17.28;100.00
13821;BME280;6981;42.678;23.294;2022-09-09T04:43:18;94921.13;;;15.84;100.00
13821;BME280;6981;42.678;23.294;2022-09-09T04:46:03;95045.13;;;16.65;100.00
13821;BME280;6981;42.678;23.294;2022-09-09T04:48:39;95033.44;;;16.28;100.00
13821;BME280;6981;42.678;23.294;2022-09-09T04:51:21;95120.34;;;17.08;100.00
13821;BME280;6981;42.678;23.294;2022-09-09T04:54:10;94895.84;;;15.88;100.00
13821;BME280;6981;42.678;23.294;2022-09-09T04:57:14;94903.03;;;17.18;100.00
13821;BME280;6981;42.678;23.294;2022-09-09T05:00:03;95110.16;;;19.25;100.00
13821;BME280;6981;42.678;23.294;2022-09-09T05:02:50;95114.44;;;19.79;100.00
13821;BME280;6981;42.678;23.294;2022-09-09T05:05:35;94870.38;;;19.09;100.00
13821;BME280;6981;42.678;23.294;2022-09-09T05:08:17;94896.56;;;20.43;100.00
13821;BME280;6981;42.678;23.294;2022-09-09T05:11:18;94893.06;;;20.88;100.00
13821;BME280;6981;42.678;23.294;2022-09-09T06:32:17;94934.31;;;21.85;100.00
13821;BME280;6981;42.678;23.294;2022-09-09T06:35:07;95113.25;;;24.62;100.00
13821;BME280;6981;42.678;23.294;2022-09-09T06:55:25;95114.69;;;25.77;100.00
13821;BME280;6981;42.678;23.294;2022-09-09T06:58:32;95126.88;;;25.08;100.00
13821;BME280;6981;42.678;23.294;2022-09-09T07:01:17;94917.19;;;22.57;100.00
13821;BME280;6981;42.678;23.294;2022-09-09T07:04:00;94983.00;;;23.65;100.00
13821;BME280;6981;42.678;23.294;2022-09-09T07:06:49;95118.03;;;24.55;100.00
13821;BME280;6981;42.678;23.294;2022-09-09T07:09:46;95120.97;;;24.53;100.00
13821;BME280;6981;42.678;23.294;2022-09-09T07:25:39;94931.19;;;25.25;97.68
13821;BME280;6981;42.678;23.294;2022-09-09T07:28:28;95001.09;;;26.75;87.79
13821;BME280;6981;42.678;23.294;2022-09-09T07:31:21;95102.66;;;27.39;87.91
13821;BME280;6981;42.678;23.294;2022-09-09T07:34:05;95101.06;;;28.16;80.56
13821;BME280;6981;42.678;23.294;2022-09-09T07:36:48;94903.09;;;26.56;80.76
13821;BME280;6981;42.678;23.294;2022-09-09T07:39:51;94930.59;;;26.53;82.91
13821;BME280;6981;42.678;23.294;2022-09-09T10:55:45;95071.28;;;25.33;100.00
13821;BME280;6981;42.678;23.294;2022-09-09T10:58:53;95072.97;;;25.60;100.00
13821;BME280;6981;42.678;23.294;2022-09-09T11:01:49;94824.75;;;23.60;100.00
13821;BME280;6981;42.678;23.294;2022-09-09T11:04:43;94836.22;;;23.51;100.00
13821;BME280;6981;42.678;23.294;2022-09-09T11:07:59;94857.47;;;23.67;100.00
13821;BME280;6981;42.678;23.294;2022-09-09T12:54:57;94821.34;;;26.32;100.00
13821;BME280;6981;42.678;23.294;2022-09-09T12:57:45;94751.84;;;25.90;100.00
13821;BME280;6981;42.678;23.294;2022-09-09T13:00:32;94849.63;;;26.29;100.00
13821;BME280;6981;42.678;23.294;2022-09-09T13:03:26;94786.16;;;26.13;100.00
13821;BME280;6981;42.678;23.294;2022-09-09T13:06:43;94703.00;;;25.62;100.00
13821;BME280;6981;42.678;23.294;2022-09-09T13:09:25;94909.97;;;27.16;100.00
13821;BME280;6981;42.678;23.294;2022-09-09T22:29:42;94694.53;;;19.03;100.00
13821;BME280;6981;42.678;23.294;2022-09-09T22:32:18;94666.84;;;18.88;100.00
13821;BME280;6981;42.678;23.294;2022-09-09T22:35:09;94703.44;;;19.09;100.00
13821;BME280;6981;42.678;23.294;2022-09-09T22:38:26;94882.44;;;20.43;100.00
13821;BME280;6981;42.678;23.294;2022-09-09T22:41:11;94681.50;;;19.02;100.00
13821;BME280;6981;42.678;23.294;2022-09-09T22:53:55;94696.66;;;19.01;100.00
13821;BME280;6981;42.678;23.294;2022-09-09T22:56:37;94692.00;;;19.09;100.00
13821;BME280;6981;42.678;23.294;2022-09-09T22:59:21;94885.03;;;20.54;100.00
13821;BME280;6981;42.678;23.294;2022-09-09T23:02:11;94706.13;;;19.37;100.00
13821;BME280;6981;42.678;23.294;2022-09-09T23:05:01;94824.63;;;20.03;100.00
13821;BME280;6981;42.678;23.294;2022-09-09T23:08:16;94880.59;;;20.60;100.00
